Staley, North Carolina
Current Conditions -  °F | °C
As of 7:55 AM on Saturday 20 Dec 2014 (Local Time) from K5W8 Reporting Station
Light Rain Light Rain  
Wind Chill: 34°   Ceiling: 4800
Heat Index: 34°   Visibility: 7mi
Dew Point: 32°   Wind: 0mph
Humidity: 92%   Direction: NA
Pressure: 30.27"   Gusts: NA
Location:  35.8°N, 79.55°W
Report Text: K5W8 201255Z AUTO 00000KT 7SM -RA OVC048 01/00 A3027 RMK AO2 T00120000
Loading
Personal Weather Stations






























Interactive Weather Map New forecast layout! Learn more

10-Day Weather Forecast

Advertisements
Track Severe Weather on mobile